sensor_id;sensor_type;location;lat;lon;timestamp;pressure;altitude;pressure_sealevel;temperature;humidity
46836;BME280;32573;51.290;6.926;2022-09-25T00:01:31;99972.09;;;14.20;100.00
46836;BME280;32573;51.290;6.926;2022-09-25T00:04:00;99971.22;;;14.19;100.00
46836;BME280;32573;51.290;6.926;2022-09-25T00:06:30;99970.34;;;14.19;100.00
46836;BME280;32573;51.290;6.926;2022-09-25T00:09:00;99974.75;;;14.18;100.00
46836;BME280;32573;51.290;6.926;2022-09-25T00:11:35;99966.81;;;14.17;100.00
46836;BME280;32573;51.290;6.926;2022-09-25T00:14:04;99973.88;;;14.18;100.00
46836;BME280;32573;51.290;6.926;2022-09-25T00:16:32;99977.34;;;14.17;100.00
46836;BME280;32573;51.290;6.926;2022-09-25T00:19:01;99981.75;;;14.18;100.00
46836;BME280;32573;51.290;6.926;2022-09-25T00:21:47;99980.84;;;14.16;100.00
46836;BME280;32573;51.290;6.926;2022-09-25T00:24:21;99976.44;;;14.15;100.00
46836;BME280;32573;51.290;6.926;2022-09-25T00:26:49;99979.94;;;14.14;100.00
46836;BME280;32573;51.290;6.926;2022-09-25T00:29:18;99970.31;;;14.13;100.00
46836;BME280;32573;51.290;6.926;2022-09-25T00:31:47;99975.53;;;14.11;100.00
46836;BME280;32573;51.290;6.926;2022-09-25T00:34:16;99972.03;;;14.12;100.00
46836;BME280;32573;51.290;6.926;2022-09-25T00:36:44;99974.66;;;14.11;100.00
46836;BME280;32573;51.290;6.926;2022-09-25T00:39:12;99970.28;;;14.11;100.00
46836;BME280;32573;51.290;6.926;2022-09-25T00:41:42;99964.97;;;14.10;100.00
46836;BME280;32573;51.290;6.926;2022-09-25T00:47:19;99969.34;;;14.08;100.00
46836;BME280;32573;51.290;6.926;2022-09-25T00:49:50;99976.41;;;14.09;100.00
46836;BME280;32573;51.290;6.926;2022-09-25T00:52:21;99973.72;;;14.07;100.00
46836;BME280;32573;51.290;6.926;2022-09-25T00:54:53;99974.59;;;14.05;100.00
46836;BME280;32573;51.290;6.926;2022-09-25T00:57:28;99972.84;;;14.03;100.00
46836;BME280;32573;51.290;6.926;2022-09-25T01:00:00;99978.94;;;14.02;100.00
46836;BME280;32573;51.290;6.926;2022-09-25T01:02:33;99986.84;;;14.02;100.00
46836;BME280;32573;51.290;6.926;2022-09-25T01:05:08;99989.47;;;14.01;100.00
46836;BME280;32573;51.290;6.926;2022-09-25T01:07:39;99988.59;;;14.00;100.00
46836;BME280;32573;51.290;6.926;2022-09-25T01:10:09;99988.59;;;14.00;100.00
46836;BME280;32573;51.290;6.926;2022-09-25T01:12:41;99985.06;;;13.98;100.00
46836;BME280;32573;51.290;6.926;2022-09-25T01:15:12;99985.06;;;13.98;100.00
46836;BME280;32573;51.290;6.926;2022-09-25T01:17:47;99982.41;;;13.97;100.00
46836;BME280;32573;51.290;6.926;2022-09-25T01:20:33;99986.78;;;13.96;100.00
46836;BME280;32573;51.290;6.926;2022-09-25T01:23:19;99991.13;;;13.94;100.00
46836;BME280;32573;51.290;6.926;2022-09-25T01:26:00;99983.25;;;13.94;100.00
46836;BME280;32573;51.290;6.926;2022-09-25T01:28:49;99983.25;;;13.93;100.00
46836;BME280;32573;51.290;6.926;2022-09-25T01:31:24;99990.25;;;13.91;100.00
46836;BME280;32573;51.290;6.926;2022-09-25T01:34:00;99982.31;;;13.89;100.00
46836;BME280;32573;51.290;6.926;2022-09-25T01:36:34;99988.47;;;13.88;100.00
46836;BME280;32573;51.290;6.926;2022-09-25T01:39:08;99983.13;;;13.85;100.00
46836;BME280;32573;51.290;6.926;2022-09-25T01:41:42;99987.53;;;13.85;100.00
46836;BME280;32573;51.290;6.926;2022-09-25T01:44:16;99986.59;;;13.82;100.00
46836;BME280;32573;51.290;6.926;2022-09-25T01:46:51;99995.41;;;13.83;100.00
46836;BME280;32573;51.290;6.926;2022-09-25T01:49:24;99984.81;;;13.80;100.00
46836;BME280;32573;51.290;6.926;2022-09-25T01:51:54;99992.69;;;13.77;100.00
46836;BME280;32573;51.290;6.926;2022-09-25T01:54:27;99992.66;;;13.74;100.00
46836;BME280;32573;51.290;6.926;2022-09-25T01:57:01;99998.81;;;13.73;100.00
46836;BME280;32573;51.290;6.926;2022-09-25T01:59:35;100002.25;;;13.69;100.00
46836;BME280;32573;51.290;6.926;2022-09-25T02:02:06;99995.19;;;13.68;100.00
46836;BME280;32573;51.290;6.926;2022-09-25T02:04:43;100000.44;;;13.65;100.00
46836;BME280;32573;51.290;6.926;2022-09-25T02:07:17;99993.41;;;13.64;100.00
46836;BME280;32573;51.290;6.926;2022-09-25T02:09:50;99992.50;;;13.62;100.00
46836;BME280;32573;51.290;6.926;2022-09-25T02:12:22;99999.53;;;13.61;100.00
46836;BME280;32573;51.290;6.926;2022-09-25T02:14:59;99990.72;;;13.59;100.00
46836;BME280;32573;51.290;6.926;2022-09-25T02:17:34;99997.69;;;13.57;100.00
46836;BME280;32573;51.290;6.926;2022-09-25T02:20:23;100000.34;;;13.55;100.00
46836;BME280;32573;51.290;6.926;2022-09-25T02:23:09;99995.91;;;13.54;100.00
46836;BME280;32573;51.290;6.926;2022-09-25T02:25:42;99995.03;;;13.54;100.00
46836;BME280;32573;51.290;6.926;2022-09-25T02:28:11;99996.78;;;13.53;100.00
46836;BME280;32573;51.290;6.926;2022-09-25T02:30:41;100000.28;;;13.52;100.00
46836;BME280;32573;51.290;6.926;2022-09-25T02:33:12;99992.38;;;13.52;100.00
46836;BME280;32573;51.290;6.926;2022-09-25T02:35:40;99993.25;;;13.51;100.00
46836;BME280;32573;51.290;6.926;2022-09-25T02:38:09;99995.88;;;13.51;100.00
46836;BME280;32573;51.290;6.926;2022-09-25T02:40:43;99999.34;;;13.50;100.00
46836;BME280;32573;51.290;6.926;2022-09-25T02:43:22;99993.25;;;13.51;100.00
46836;BME280;32573;51.290;6.926;2022-09-25T02:46:01;99995.00;;;13.51;100.00
46836;BME280;32573;51.290;6.926;2022-09-25T02:48:39;99995.84;;;13.50;100.00
46836;BME280;32573;51.290;6.926;2022-09-25T02:51:19;99993.22;;;13.48;100.00
46836;BME280;32573;51.290;6.926;2022-09-25T02:53:54;99992.31;;;13.46;100.00
46836;BME280;32573;51.290;6.926;2022-09-25T02:56:27;99993.16;;;13.45;100.00
46836;BME280;32573;51.290;6.926;2022-09-25T02:59:01;99994.91;;;13.45;100.00
46836;BME280;32573;51.290;6.926;2022-09-25T03:01:36;99994.03;;;13.44;100.00
46836;BME280;32573;51.290;6.926;2022-09-25T03:04:08;99986.09;;;13.43;100.00
46836;BME280;32573;51.290;6.926;2022-09-25T03:06:38;99984.34;;;13.42;100.00
46836;BME280;32573;51.290;6.926;2022-09-25T03:09:08;99996.63;;;13.41;100.00
46836;BME280;32573;51.290;6.926;2022-09-25T03:11:37;99991.38;;;13.41;100.00
46836;BME280;32573;51.290;6.926;2022-09-25T03:14:07;99995.72;;;13.39;100.00
46836;BME280;32573;51.290;6.926;2022-09-25T03:16:42;99989.56;;;13.37;100.00
46836;BME280;32573;51.290;6.926;2022-09-25T03:19:13;100000.06;;;13.37;100.00
46836;BME280;32573;51.290;6.926;2022-09-25T03:21:42;99991.25;;;13.35;100.00
46836;BME280;32573;51.290;6.926;2022-09-25T03:24:10;100000.03;;;13.34;100.00
46836;BME280;32573;51.290;6.926;2022-09-25T03:26:39;100004.41;;;13.33;100.00
46836;BME280;32573;51.290;6.926;2022-09-25T03:29:07;100004.38;;;13.32;100.00
46836;BME280;32573;51.290;6.926;2022-09-25T03:31:37;100001.72;;;13.30;100.00
46836;BME280;32573;51.290;6.926;2022-09-25T03:34:08;99997.34;;;13.29;100.00
46836;BME280;32573;51.290;6.926;2022-09-25T03:36:36;99999.94;;;13.28;100.00
46836;BME280;32573;51.290;6.926;2022-09-25T03:39:05;100004.28;;;13.26;100.00
46836;BME280;32573;51.290;6.926;2022-09-25T03:41:36;100004.28;;;13.26;100.00
46836;BME280;32573;51.290;6.926;2022-09-25T03:44:04;100004.19;;;13.23;100.00
46836;BME280;32573;51.290;6.926;2022-09-25T03:46:34;100006.81;;;13.21;100.00
46836;BME280;32573;51.290;6.926;2022-09-25T03:49:04;100005.03;;;13.19;100.00
46836;BME280;32573;51.290;6.926;2022-09-25T03:51:33;99998.88;;;13.16;100.00
46836;BME280;32573;51.290;6.926;2022-09-25T03:54:01;100001.47;;;13.15;100.00
46836;BME280;32573;51.290;6.926;2022-09-25T03:56:30;99997.97;;;13.14;100.00
46836;BME280;32573;51.290;6.926;2022-09-25T03:58:58;99997.97;;;13.13;100.00
46836;BME280;32573;51.290;6.926;2022-09-25T04:01:27;100000.59;;;13.13;100.00
46836;BME280;32573;51.290;6.926;2022-09-25T04:03:56;100004.06;;;13.12;100.00
46836;BME280;32573;51.290;6.926;2022-09-25T04:06:28;100004.94;;;13.12;100.00
46836;BME280;32573;51.290;6.926;2022-09-25T04:08:56;99997.91;;;13.11;100.00
46836;BME280;32573;51.290;6.926;2022-09-25T04:11:25;100006.69;;;13.10;100.00
46836;BME280;32573;51.290;6.926;2022-09-25T04:13:53;99997.00;;;13.09;100.00
46836;BME280;32573;51.290;6.926;2022-09-25T04:16:22;99997.88;;;13.08;100.00
46836;BME280;32573;51.290;6.926;2022-09-25T04:18:52;100002.22;;;13.06;100.00
46836;BME280;32573;51.290;6.926;2022-09-25T04:21:20;100000.44;;;13.05;100.00
46836;BME280;32573;51.290;6.926;2022-09-25T04:23:49;99998.69;;;13.04;100.00
46836;BME280;32573;51.290;6.926;2022-09-25T04:26:32;99994.28;;;13.02;100.00
46836;BME280;32573;51.290;6.926;2022-09-25T04:29:01;99994.22;;;13.00;100.00
46836;BME280;32573;51.290;6.926;2022-09-25T04:31:30;99996.84;;;12.99;100.00
46836;BME280;32573;51.290;6.926;2022-09-25T04:33:58;99994.19;;;12.97;100.00
46836;BME280;32573;51.290;6.926;2022-09-25T04:36:26;99993.28;;;12.95;100.00
46836;BME280;32573;51.290;6.926;2022-09-25T04:38:55;99985.34;;;12.92;100.00
46836;BME280;32573;51.290;6.926;2022-09-25T04:41:23;99991.44;;;12.89;100.00
46836;BME280;32573;51.290;6.926;2022-09-25T04:43:52;99995.78;;;12.86;100.00
46836;BME280;32573;51.290;6.926;2022-09-25T04:46:20;99993.97;;;12.82;100.00
46836;BME280;32573;51.290;6.926;2022-09-25T04:48:49;99998.28;;;12.78;100.00
46836;BME280;32573;51.290;6.926;2022-09-25T04:51:17;100002.59;;;12.74;100.00
46836;BME280;32573;51.290;6.926;2022-09-25T04:53:46;100013.94;;;12.70;100.00
46836;BME280;32573;51.290;6.926;2022-09-25T04:56:15;100011.22;;;12.67;100.00
46836;BME280;32573;51.290;6.926;2022-09-25T04:58:45;100015.56;;;12.65;100.00
46836;BME280;32573;51.290;6.926;2022-09-25T05:01:15;100007.63;;;12.62;100.00
46836;BME280;32573;51.290;6.926;2022-09-25T05:03:46;100011.97;;;12.60;100.00
46836;BME280;32573;51.290;6.926;2022-09-25T05:06:15;100001.44;;;12.57;100.00
46836;BME280;32573;51.290;6.926;2022-09-25T05:08:45;100007.50;;;12.55;100.00
46836;BME280;32573;51.290;6.926;2022-09-25T05:11:16;100007.50;;;12.53;100.00
46836;BME280;32573;51.290;6.926;2022-09-25T05:13:48;100005.72;;;12.50;100.00
46836;BME280;32573;51.290;6.926;2022-09-25T05:16:17;100009.13;;;12.48;100.00
46836;BME280;32573;51.290;6.926;2022-09-25T05:18:46;100010.00;;;12.47;100.00
46836;BME280;32573;51.290;6.926;2022-09-25T05:21:14;100005.53;;;12.43;100.00
46836;BME280;32573;51.290;6.926;2022-09-25T05:23:43;100000.25;;;12.40;100.00
46836;BME280;32573;51.290;6.926;2022-09-25T05:26:11;99992.31;;;12.37;100.00
46836;BME280;32573;51.290;6.926;2022-09-25T05:28:41;99994.03;;;12.35;100.00
46836;BME280;32573;51.290;6.926;2022-09-25T05:31:09;99997.50;;;12.32;100.00
46836;BME280;32573;51.290;6.926;2022-09-25T05:33:37;100000.09;;;12.30;100.00
46836;BME280;32573;51.290;6.926;2022-09-25T05:36:07;100000.91;;;12.28;100.00
46836;BME280;32573;51.290;6.926;2022-09-25T05:38:36;100006.97;;;12.25;100.00
46836;BME280;32573;51.290;6.926;2022-09-25T05:41:07;99999.06;;;12.22;100.00
46836;BME280;32573;51.290;6.926;2022-09-25T05:43:37;99997.25;;;12.20;100.00
46836;BME280;32573;51.290;6.926;2022-09-25T05:46:09;99995.47;;;12.17;100.00
46836;BME280;32573;51.290;6.926;2022-09-25T05:48:38;99998.91;;;12.15;100.00
46836;BME280;32573;51.290;6.926;2022-09-25T05:51:06;100005.88;;;12.13;100.00
46836;BME280;32573;51.290;6.926;2022-09-25T05:53:35;100011.94;;;12.10;100.00
46836;BME280;32573;51.290;6.926;2022-09-25T05:56:04;100011.03;;;12.08;100.00
46836;BME280;32573;51.290;6.926;2022-09-25T05:58:34;100007.53;;;12.06;100.00
46836;BME280;32573;51.290;6.926;2022-09-25T06:01:04;100001.34;;;12.04;100.00
46836;BME280;32573;51.290;6.926;2022-09-25T06:03:34;100005.72;;;12.03;100.00
46836;BME280;32573;51.290;6.926;2022-09-25T06:06:02;100013.56;;;12.02;100.00
46836;BME280;32573;51.290;6.926;2022-09-25T06:08:31;100008.31;;;12.02;100.00
46836;BME280;32573;51.290;6.926;2022-09-25T06:11:01;100011.81;;;12.02;100.00
46836;BME280;32573;51.290;6.926;2022-09-25T06:13:31;100010.06;;;12.03;100.00
46836;BME280;32573;51.290;6.926;2022-09-25T06:16:01;100013.59;;;12.03;100.00
46836;BME280;32573;51.290;6.926;2022-09-25T06:18:31;100007.44;;;12.03;100.00
46836;BME280;32573;51.290;6.926;2022-09-25T06:21:03;100007.44;;;12.03;100.00
46836;BME280;32573;51.290;6.926;2022-09-25T06:23:32;100010.16;;;12.06;100.00
46836;BME280;32573;51.290;6.926;2022-09-25T06:26:01;100013.63;;;12.06;100.00
46836;BME280;32573;51.290;6.926;2022-09-25T06:28:30;100014.53;;;12.07;100.00
46836;BME280;32573;51.290;6.926;2022-09-25T06:30:59;100013.66;;;12.08;100.00
46836;BME280;32573;51.290;6.926;2022-09-25T06:33:31;100017.19;;;12.10;100.00
46836;BME280;32573;51.290;6.926;2022-09-25T06:35:59;100020.75;;;12.12;100.00
46836;BME280;32573;51.290;6.926;2022-09-25T06:38:29;100019.91;;;12.15;100.00
46836;BME280;32573;51.290;6.926;2022-09-25T06:40:59;100028.69;;;12.17;100.00
46836;BME280;32573;51.290;6.926;2022-09-25T06:43:28;100026.13;;;12.18;100.00
46836;BME280;32573;51.290;6.926;2022-09-25T06:46:01;100031.41;;;12.21;100.00
46836;BME280;32573;51.290;6.926;2022-09-25T06:48:30;100035.84;;;12.24;100.00
46836;BME280;32573;51.290;6.926;2022-09-25T06:50:59;100032.34;;;12.25;100.00
46836;BME280;32573;51.290;6.926;2022-09-25T06:53:29;100030.66;;;12.27;100.00
46836;BME280;32573;51.290;6.926;2022-09-25T06:55:57;100035.06;;;12.29;100.00
46836;BME280;32573;51.290;6.926;2022-09-25T06:58:27;100026.38;;;12.32;100.00
46836;BME280;32573;51.290;6.926;2022-09-25T07:00:56;100035.19;;;12.36;100.00
46836;BME280;32573;51.290;6.926;2022-09-25T07:03:25;100029.13;;;12.40;100.00
46836;BME280;32573;51.290;6.926;2022-09-25T07:06:13;100030.91;;;12.42;100.00
46836;BME280;32573;51.290;6.926;2022-09-25T07:08:43;100045.00;;;12.47;100.00
46836;BME280;32573;51.290;6.926;2022-09-25T07:11:15;100038.94;;;12.50;100.00
46836;BME280;32573;51.290;6.926;2022-09-25T07:13:44;100038.09;;;12.52;100.00
46836;BME280;32573;51.290;6.926;2022-09-25T07:16:14;100035.50;;;12.54;100.00
46836;BME280;32573;51.290;6.926;2022-09-25T07:18:44;100037.31;;;12.57;100.00
46836;BME280;32573;51.290;6.926;2022-09-25T07:21:14;100041.78;;;12.61;100.00
46836;BME280;32573;51.290;6.926;2022-09-25T07:23:45;100036.56;;;12.64;100.00
46836;BME280;32573;51.290;6.926;2022-09-25T07:26:17;100039.22;;;12.67;100.00
46836;BME280;32573;51.290;6.926;2022-09-25T07:28:52;100051.56;;;12.72;100.00
46836;BME280;32573;51.290;6.926;2022-09-25T07:31:24;100052.53;;;12.76;100.00
46836;BME280;32573;51.290;6.926;2022-09-25T07:33:52;100053.47;;;12.80;100.00
46836;BME280;32573;51.290;6.926;2022-09-25T07:36:21;100056.13;;;12.83;100.00
46836;BME280;32573;51.290;6.926;2022-09-25T07:38:52;100053.56;;;12.86;100.00
46836;BME280;32573;51.290;6.926;2022-09-25T07:41:21;100053.59;;;12.87;100.00
46836;BME280;32573;51.290;6.926;2022-09-25T07:43:53;100054.47;;;12.88;100.00
46836;BME280;32573;51.290;6.926;2022-09-25T07:46:42;100050.13;;;12.88;100.00
46836;BME280;32573;51.290;6.926;2022-09-25T07:49:12;100057.09;;;12.88;100.00
46836;BME280;32573;51.290;6.926;2022-09-25T07:51:41;100043.94;;;12.86;100.00
46836;BME280;32573;51.290;6.926;2022-09-25T07:54:10;100049.19;;;12.86;100.00
46836;BME280;32573;51.290;6.926;2022-09-25T07:56:39;100051.84;;;12.88;100.00
46836;BME280;32573;51.290;6.926;2022-09-25T07:59:07;100050.06;;;12.87;100.00
46836;BME280;32573;51.290;6.926;2022-09-25T08:01:36;100052.75;;;12.88;100.00
46836;BME280;32573;51.290;6.926;2022-09-25T08:04:11;100044.88;;;12.90;100.00
46836;BME280;32573;51.290;6.926;2022-09-25T08:06:40;100052.78;;;12.91;100.00
46836;BME280;32573;51.290;6.926;2022-09-25T08:09:10;100053.72;;;12.95;100.00
46836;BME280;32573;51.290;6.926;2022-09-25T08:11:39;100046.75;;;12.97;100.00
46836;BME280;32573;51.290;6.926;2022-09-25T08:14:07;100054.66;;;13.00;100.00
46836;BME280;32573;51.290;6.926;2022-09-25T08:16:35;100056.47;;;13.03;100.00
46836;BME280;32573;51.290;6.926;2022-09-25T08:19:04;100060.88;;;13.05;100.00
46836;BME280;32573;51.290;6.926;2022-09-25T08:21:32;100057.41;;;13.06;100.00
46836;BME280;32573;51.290;6.926;2022-09-25T08:24:02;100057.44;;;13.09;100.00
46836;BME280;32573;51.290;6.926;2022-09-25T08:26:31;100060.13;;;13.11;100.00
46836;BME280;32573;51.290;6.926;2022-09-25T08:29:00;100059.28;;;13.13;100.00
46836;BME280;32573;51.290;6.926;2022-09-25T08:31:28;100062.81;;;13.15;100.00
46836;BME280;32573;51.290;6.926;2022-09-25T08:33:57;100056.69;;;13.16;100.00
46836;BME280;32573;51.290;6.926;2022-09-25T08:36:47;100057.59;;;13.19;100.00
46836;BME280;32573;51.290;6.926;2022-09-25T08:39:16;100051.47;;;13.20;100.00
46836;BME280;32573;51.290;6.926;2022-09-25T08:41:48;100054.09;;;13.20;100.00
46836;BME280;32573;51.290;6.926;2022-09-25T08:44:22;100057.66;;;13.22;100.00
46836;BME280;32573;51.290;6.926;2022-09-25T08:46:54;100055.06;;;13.25;100.00
46836;BME280;32573;51.290;6.926;2022-09-25T08:49:53;100051.63;;;13.27;100.00
46836;BME280;32573;51.290;6.926;2022-09-25T08:52:27;100053.44;;;13.31;100.00
46836;BME280;32573;51.290;6.926;2022-09-25T08:54:57;100054.41;;;13.36;100.00
46836;BME280;32573;51.290;6.926;2022-09-25T08:57:30;100054.47;;;13.43;100.00
46836;BME280;32573;51.290;6.926;2022-09-25T09:00:04;100055.47;;;13.49;100.00
46836;BME280;32573;51.290;6.926;2022-09-25T09:02:38;100052.03;;;13.53;100.00
46836;BME280;32573;51.290;6.926;2022-09-25T09:05:15;100059.09;;;13.59;100.00
46836;BME280;32573;51.290;6.926;2022-09-25T09:07:48;100057.38;;;13.63;100.00
46836;BME280;32573;51.290;6.926;2022-09-25T09:10:26;100057.44;;;13.67;100.00
46836;BME280;32573;51.290;6.926;2022-09-25T09:13:04;100059.28;;;13.71;100.00
46836;BME280;32573;51.290;6.926;2022-09-25T09:15:39;100058.47;;;13.77;100.00
46836;BME280;32573;51.290;6.926;2022-09-25T09:18:21;100057.66;;;13.82;100.00
46836;BME280;32573;51.290;6.926;2022-09-25T09:20:52;100055.97;;;13.88;100.00
46836;BME280;32573;51.290;6.926;2022-09-25T09:23:22;100048.19;;;13.95;100.00
46836;BME280;32573;51.290;6.926;2022-09-25T09:25:59;100049.13;;;14.00;100.00
46836;BME280;32573;51.290;6.926;2022-09-25T09:31:31;100057.06;;;14.03;100.00
46836;BME280;32573;51.290;6.926;2022-09-25T09:34:22;100052.63;;;14.02;100.00
46836;BME280;32573;51.290;6.926;2022-09-25T09:37:17;100046.53;;;14.03;100.00
46836;BME280;32573;51.290;6.926;2022-09-25T09:40:01;100048.28;;;14.05;100.00
46836;BME280;32573;51.290;6.926;2022-09-25T09:42:40;100044.81;;;14.06;100.00
46836;BME280;32573;51.290;6.926;2022-09-25T09:45:18;100043.94;;;14.08;100.00
46836;BME280;32573;51.290;6.926;2022-09-25T09:47:53;100046.59;;;14.10;100.00
46836;BME280;32573;51.290;6.926;2022-09-25T09:50:34;100044.88;;;14.15;100.00
46836;BME280;32573;51.290;6.926;2022-09-25T09:53:23;100038.81;;;14.22;100.00
46836;BME280;32573;51.290;6.926;2022-09-25T09:55:56;100043.28;;;14.29;100.00
46836;BME280;32573;51.290;6.926;2022-09-25T09:58:34;100040.75;;;14.35;100.00
46836;BME280;32573;51.290;6.926;2022-09-25T10:01:07;100035.47;;;14.37;100.00
46836;BME280;32573;51.290;6.926;2022-09-25T10:04:03;100034.63;;;14.39;100.00
46836;BME280;32573;51.290;6.926;2022-09-25T10:06:36;100035.56;;;14.48;100.00
46836;BME280;32573;51.290;6.926;2022-09-25T10:09:04;100026.06;;;14.56;100.00
46836;BME280;32573;51.290;6.926;2022-09-25T10:11:34;100031.38;;;14.65;100.00
46836;BME280;32573;51.290;6.926;2022-09-25T10:14:03;100029.72;;;14.75;100.00
46836;BME280;32573;51.290;6.926;2022-09-25T10:16:34;100037.72;;;14.85;100.00
46836;BME280;32573;51.290;6.926;2022-09-25T10:19:05;100035.16;;;14.95;100.00
46836;BME280;32573;51.290;6.926;2022-09-25T10:21:38;100029.97;;;15.05;100.00
46836;BME280;32573;51.290;6.926;2022-09-25T10:24:07;100026.53;;;15.14;100.00
46836;BME280;32573;51.290;6.926;2022-09-25T10:26:37;100020.41;;;15.21;100.00
46836;BME280;32573;51.290;6.926;2022-09-25T10:29:25;100028.41;;;15.30;100.00
46836;BME280;32573;51.290;6.926;2022-09-25T10:31:58;100026.69;;;15.39;100.00
46836;BME280;32573;51.290;6.926;2022-09-25T10:34:27;100025.84;;;15.46;100.00
46836;BME280;32573;51.290;6.926;2022-09-25T10:36:56;100022.34;;;15.51;100.00
46836;BME280;32573;51.290;6.926;2022-09-25T10:39:30;100015.34;;;15.57;100.00
46836;BME280;32573;51.290;6.926;2022-09-25T10:42:36;100018.91;;;15.60;100.00
46836;BME280;32573;51.290;6.926;2022-09-25T10:45:26;100023.31;;;15.67;100.00
46836;BME280;32573;51.290;6.926;2022-09-25T10:47:57;100016.38;;;15.76;100.00
46836;BME280;32573;51.290;6.926;2022-09-25T10:50:44;100014.63;;;15.87;100.00
46836;BME280;32573;51.290;6.926;2022-09-25T10:53:31;100021.72;;;15.97;100.00
46836;BME280;32573;51.290;6.926;2022-09-25T10:56:02;100022.63;;;16.05;100.00
46836;BME280;32573;51.290;6.926;2022-09-25T10:58:35;100015.59;;;16.09;100.00
46836;BME280;32573;51.290;6.926;2022-09-25T11:01:08;100016.50;;;16.14;100.00
46836;BME280;32573;51.290;6.926;2022-09-25T11:03:45;100014.75;;;16.17;100.00
46836;BME280;32573;51.290;6.926;2022-09-25T11:06:20;100010.34;;;16.18;100.00
46836;BME280;32573;51.290;6.926;2022-09-25T11:09:02;100011.22;;;16.22;100.00
46836;BME280;32573;51.290;6.926;2022-09-25T11:11:34;100005.97;;;16.28;100.00
46836;BME280;32573;51.290;6.926;2022-09-25T11:14:07;100005.09;;;16.35;100.00
46836;BME280;32573;51.290;6.926;2022-09-25T11:16:50;100005.97;;;16.45;100.00
46836;BME280;32573;51.290;6.926;2022-09-25T11:19:26;100012.16;;;16.51;100.00
46836;BME280;32573;51.290;6.926;2022-09-25T11:22:04;100013.94;;;16.60;100.00
46836;BME280;32573;51.290;6.926;2022-09-25T11:24:42;100011.31;;;16.68;100.00
46836;BME280;32573;51.290;6.926;2022-09-25T11:27:18;100007.81;;;16.81;100.00
46836;BME280;32573;51.290;6.926;2022-09-25T11:29:55;100007.81;;;16.90;100.00
46836;BME280;32573;51.290;6.926;2022-09-25T11:32:31;100008.66;;;16.97;100.00
46836;BME280;32573;51.290;6.926;2022-09-25T11:35:20;100010.44;;;16.96;100.00
46836;BME280;32573;51.290;6.926;2022-09-25T11:38:01;100006.91;;;16.94;100.00
46836;BME280;32573;51.290;6.926;2022-09-25T11:40:46;100003.41;;;16.88;100.00
46836;BME280;32573;51.290;6.926;2022-09-25T11:43:44;100011.31;;;16.75;100.00
46836;BME280;32573;51.290;6.926;2022-09-25T11:46:26;100006.00;;;16.65;100.00
46836;BME280;32573;51.290;6.926;2022-09-25T11:49:07;99998.97;;;16.64;100.00
46836;BME280;32573;51.290;6.926;2022-09-25T11:51:51;99999.84;;;16.66;100.00
46836;BME280;32573;51.290;6.926;2022-09-25T11:54:32;99993.69;;;16.76;100.00
46836;BME280;32573;51.290;6.926;2022-09-25T11:57:09;100002.50;;;16.89;100.00
46836;BME280;32573;51.290;6.926;2022-09-25T11:59:49;99991.94;;;17.01;100.00
46836;BME280;32573;51.290;6.926;2022-09-25T12:02:32;99990.16;;;17.20;100.00
46836;BME280;32573;51.290;6.926;2022-09-25T12:05:20;99980.41;;;17.40;100.00
46836;BME280;32573;51.290;6.926;2022-09-25T12:08:08;99988.25;;;17.62;100.00
46836;BME280;32573;51.290;6.926;2022-09-25T12:10:48;99988.22;;;17.77;100.00
46836;BME280;32573;51.290;6.926;2022-09-25T12:13:23;99972.28;;;17.91;100.00
46836;BME280;32573;51.290;6.926;2022-09-25T12:16:05;99972.22;;;18.03;100.00
46836;BME280;32573;51.290;6.926;2022-09-25T12:18:53;99973.97;;;18.04;100.00
46836;BME280;32573;51.290;6.926;2022-09-25T12:21:26;99974.91;;;17.97;100.00
46836;BME280;32573;51.290;6.926;2022-09-25T12:24:10;99974.06;;;17.84;100.00
46836;BME280;32573;51.290;6.926;2022-09-25T12:26:46;99974.09;;;17.72;100.00
46836;BME280;32573;51.290;6.926;2022-09-25T12:29:35;99971.50;;;17.58;100.00
46836;BME280;32573;51.290;6.926;2022-09-25T12:32:11;99965.34;;;17.55;100.00
46836;BME280;32573;51.290;6.926;2022-09-25T12:34:54;99961.81;;;17.56;100.00
46836;BME280;32573;51.290;6.926;2022-09-25T12:37:30;99959.13;;;17.62;100.00
46836;BME280;32573;51.290;6.926;2022-09-25T12:40:19;99952.91;;;17.81;100.00
46836;BME280;32573;51.290;6.926;2022-09-25T12:42:54;99942.22;;;18.00;100.00
46836;BME280;32573;51.290;6.926;2022-09-25T12:45:30;99951.84;;;18.15;100.00
46836;BME280;32573;51.290;6.926;2022-09-25T12:48:06;99942.97;;;18.20;100.00
46836;BME280;32573;51.290;6.926;2022-09-25T12:50:42;99943.75;;;18.31;100.00
46836;BME280;32573;51.290;6.926;2022-09-25T12:53:21;99943.63;;;18.47;100.00
46836;BME280;32573;51.290;6.926;2022-09-25T12:55:57;99929.38;;;18.63;100.00
46836;BME280;32573;51.290;6.926;2022-09-25T12:58:36;99925.72;;;18.80;100.00
46836;BME280;32573;51.290;6.926;2022-09-25T13:01:11;99929.16;;;18.91;100.00
46836;BME280;32573;51.290;6.926;2022-09-25T13:03:45;99925.47;;;19.04;100.00
46836;BME280;32573;51.290;6.926;2022-09-25T13:06:20;99913.78;;;19.21;100.00
46836;BME280;32573;51.290;6.926;2022-09-25T13:08:56;99915.41;;;19.34;100.00
46836;BME280;32573;51.290;6.926;2022-09-25T13:11:35;99925.13;;;19.35;100.00
46836;BME280;32573;51.290;6.926;2022-09-25T13:14:14;99919.94;;;19.26;100.00
46836;BME280;32573;51.290;6.926;2022-09-25T13:16:44;99918.28;;;19.15;100.00
46836;BME280;32573;51.290;6.926;2022-09-25T13:19:23;99919.31;;;19.01;100.00
46836;BME280;32573;51.290;6.926;2022-09-25T13:21:58;99918.41;;;19.02;100.00
46836;BME280;32573;51.290;6.926;2022-09-25T13:24:29;99907.72;;;19.09;100.00